createdAt,value
2018-11-02T00:00:44.031Z,9.57
2018-11-02T00:05:40.767Z,10.43
2018-11-02T00:10:37.672Z,10.77
2018-11-02T00:15:34.370Z,10.17
2018-11-02T00:20:31.152Z,10.13
2018-11-02T00:25:28.017Z,9.87
2018-11-02T00:30:24.735Z,10.40
2018-11-02T00:35:21.539Z,9.30
2018-11-02T00:40:18.316Z,9.33
2018-11-02T00:45:15.064Z,9.80
2018-11-02T00:50:12.348Z,9.67
2018-11-02T00:55:09.225Z,9.77
2018-11-02T01:00:07.579Z,10.13
2018-11-02T01:05:04.945Z,9.23
2018-11-02T01:10:01.704Z,9.87
2018-11-02T01:14:58.485Z,10.20
2018-11-02T01:19:55.251Z,9.63
2018-11-02T01:24:52.017Z,9.77
2018-11-02T01:29:48.716Z,10.53
2018-11-02T01:34:45.530Z,10.57
2018-11-02T01:39:42.218Z,10.70
2018-11-02T01:44:39.042Z,10.77
2018-11-02T01:49:35.764Z,9.93
2018-11-02T01:54:32.494Z,9.10
2018-11-02T01:59:29.170Z,9.47
2018-11-02T02:04:26.153Z,10.67
2018-11-02T02:09:23.013Z,10.80
2018-11-02T02:14:19.731Z,10.13
2018-11-02T02:19:16.451Z,10.60
2018-11-02T02:24:13.254Z,10.53
2018-11-02T02:29:09.971Z,10.03
2018-11-02T02:34:06.702Z,10.97
2018-11-02T02:39:04.397Z,10.43
2018-11-02T02:44:01.163Z,10.40
2018-11-02T02:48:57.874Z,9.60
2018-11-02T02:53:54.570Z,10.20
2018-11-02T02:58:51.600Z,9.77
2018-11-02T03:03:48.301Z,10.43
2018-11-02T03:08:45.090Z,10.13
2018-11-02T03:13:41.930Z,9.77
2018-11-02T03:18:38.689Z,10.33
2018-11-02T03:23:35.637Z,9.67
2018-11-02T03:28:32.375Z,9.30
2018-11-02T03:33:29.079Z,10.33
2018-11-02T03:38:25.820Z,11.20
2018-11-02T03:43:22.601Z,9.80
2018-11-02T03:48:19.368Z,10.30
2018-11-02T03:53:16.115Z,11.63
2018-11-02T03:58:12.891Z,11.37
2018-11-02T04:03:09.784Z,10.80
2018-11-02T04:08:06.501Z,10.97
2018-11-02T04:13:03.229Z,9.93
2018-11-02T04:17:59.964Z,10.37
2018-11-02T04:22:56.730Z,10.43
2018-11-02T04:27:53.405Z,11.90
2018-11-02T04:32:50.195Z,19.40
2018-11-02T04:37:46.871Z,12.97
2018-11-02T04:42:43.650Z,11.23
2018-11-02T04:47:40.347Z,11.17
2018-11-02T04:52:37.504Z,11.53
2018-11-02T04:57:34.280Z,10.83
2018-11-02T05:02:31.015Z,10.93
2018-11-02T05:07:27.857Z,10.77
2018-11-02T05:12:24.568Z,11.53
2018-11-02T05:17:21.299Z,11.00
2018-11-02T05:22:18.047Z,10.73
2018-11-02T05:27:14.829Z,10.70
2018-11-02T05:32:12.306Z,10.23
2018-11-02T05:37:09.030Z,10.97
2018-11-02T05:42:05.720Z,12.43
2018-11-02T05:47:02.552Z,15.10
2018-11-02T05:51:59.326Z,12.27
2018-11-02T05:56:56.254Z,15.50
2018-11-02T06:01:53.064Z,16.47
2018-11-02T06:06:49.823Z,17.73
2018-11-02T06:11:46.707Z,16.30
2018-11-02T06:16:43.431Z,15.53
2018-11-02T06:21:40.160Z,13.87
2018-11-02T06:26:36.871Z,13.63
2018-11-02T06:31:33.598Z,13.13
2018-11-02T06:36:30.415Z,12.73
2018-11-02T06:41:27.148Z,12.80
2018-11-02T06:46:23.926Z,12.40
2018-11-02T06:51:20.672Z,12.17
2018-11-02T06:56:17.405Z,11.93
2018-11-02T07:01:14.189Z,12.40
2018-11-02T07:06:10.929Z,11.37
2018-11-02T07:11:08.395Z,11.57
2018-11-02T07:16:05.419Z,10.67
2018-11-02T07:21:02.243Z,10.33
2018-11-02T07:25:59.185Z,10.23
2018-11-02T07:30:56.092Z,10.73
2018-11-02T07:35:52.899Z,10.67
2018-11-02T07:40:49.575Z,10.63
2018-11-02T07:45:46.306Z,11.67
2018-11-02T07:50:43.072Z,11.77
2018-11-02T07:55:39.779Z,11.97
2018-11-02T08:00:36.570Z,11.17
2018-11-02T08:05:33.286Z,12.27
2018-11-02T08:10:30.040Z,12.87
2018-11-02T08:15:26.729Z,13.53
2018-11-02T08:20:23.429Z,12.20
2018-11-02T08:25:20.201Z,11.07
2018-11-02T08:30:16.962Z,9.93
2018-11-02T08:35:13.699Z,11.37
2018-11-02T08:40:11.981Z,10.93
2018-11-02T08:45:09.412Z,11.50
2018-11-02T08:50:06.984Z,11.07
2018-11-02T08:55:03.832Z,9.30
2018-11-02T09:00:00.684Z,9.93
2018-11-02T09:04:57.605Z,10.90
2018-11-02T09:09:54.467Z,10.93
2018-11-02T09:14:51.224Z,14.53
2018-11-02T09:19:47.959Z,10.23
2018-11-02T09:24:44.739Z,9.83
2018-11-02T09:29:41.605Z,10.17
2018-11-02T09:34:38.312Z,9.93
2018-11-02T09:39:35.076Z,9.90
2018-11-02T09:44:31.811Z,9.87
2018-11-02T09:49:28.616Z,10.43
2018-11-02T09:54:25.349Z,9.47
2018-11-02T09:59:22.129Z,8.83
2018-11-02T10:04:18.899Z,9.43
2018-11-02T10:09:15.715Z,8.30
2018-11-02T10:14:12.365Z,8.20
2018-11-02T10:19:09.166Z,8.47
2018-11-02T10:24:06.220Z,8.93
2018-11-02T10:29:03.635Z,8.40
2018-11-02T10:34:00.481Z,8.87
2018-11-02T10:38:57.443Z,6.23
2018-11-02T10:43:54.208Z,6.10
2018-11-02T10:48:50.983Z,5.65
2018-11-02T10:53:47.704Z,4.90
2018-11-02T10:58:44.502Z,4.90
2018-11-02T11:03:41.697Z,3.80
2018-11-02T11:08:38.418Z,3.55
2018-11-02T11:13:35.493Z,3.02
2018-11-02T11:18:31.925Z,1.70
2018-11-02T11:23:28.660Z,1.62
2018-11-02T11:28:25.538Z,1.72
2018-11-02T11:33:22.289Z,1.70
2018-11-02T11:38:19.005Z,1.50
2018-11-02T11:43:15.743Z,1.70
2018-11-02T11:48:12.564Z,1.57
2018-11-02T11:53:09.337Z,1.60
2018-11-02T11:58:06.039Z,2.70
2018-11-02T12:03:02.890Z,1.80
2018-11-02T12:07:59.632Z,1.80
2018-11-02T12:12:56.373Z,1.50
2018-11-02T12:17:53.149Z,1.57
2018-11-02T12:22:50.573Z,2.00
2018-11-02T12:27:47.459Z,1.97
2018-11-02T12:32:44.245Z,1.80
2018-11-02T12:37:40.952Z,1.93
2018-11-02T12:42:38.645Z,1.90
2018-11-02T12:47:35.693Z,1.87
2018-11-02T12:52:32.479Z,2.43
2018-11-02T12:57:29.252Z,2.47
2018-11-02T13:02:26.159Z,2.20
2018-11-02T13:07:22.877Z,2.20
2018-11-02T13:12:19.622Z,2.10
2018-11-02T13:17:16.436Z,2.70
2018-11-02T13:22:13.358Z,3.50
2018-11-02T13:27:10.054Z,3.33
2018-11-02T13:32:06.847Z,1.93
2018-11-02T13:37:03.637Z,1.70
2018-11-02T13:42:00.338Z,1.87
2018-11-02T13:46:57.128Z,1.60
2018-11-02T13:51:53.890Z,1.80
2018-11-02T13:56:50.640Z,1.90
2018-11-02T14:01:47.648Z,5.23
2018-11-02T14:06:44.416Z,8.80
2018-11-02T14:11:41.197Z,2.60
2018-11-02T14:16:37.987Z,2.33
2018-11-02T14:21:34.819Z,4.63
2018-11-02T14:26:31.593Z,2.73
2018-11-02T14:31:28.378Z,4.00
2018-11-02T14:36:25.045Z,3.97
2018-11-02T14:41:21.931Z,5.70
2018-11-02T14:46:18.624Z,3.17
2018-11-02T14:51:15.287Z,5.27
2018-11-02T14:56:12.270Z,6.93
2018-11-02T15:01:09.068Z,3.83
2018-11-02T15:06:05.873Z,1.90
2018-11-02T15:11:02.595Z,3.20
2018-11-02T15:15:59.629Z,7.30
2018-11-02T15:20:56.331Z,5.67
2018-11-02T15:25:53.104Z,3.80
2018-11-02T15:30:49.897Z,5.80
2018-11-02T15:35:46.718Z,2.80
2018-11-02T15:40:43.428Z,5.03
2018-11-02T15:45:40.166Z,3.67
2018-11-02T15:50:36.919Z,8.47
2018-11-02T15:55:33.733Z,3.90
2018-11-02T16:00:30.504Z,4.60
2018-11-02T16:05:27.314Z,6.00
2018-11-02T16:10:24.105Z,3.50
2018-11-02T16:15:20.794Z,3.40
2018-11-02T16:20:17.518Z,4.40
2018-11-02T16:25:14.461Z,14.27
2018-11-02T16:30:11.951Z,19.10
2018-11-02T16:35:09.302Z,9.80
2018-11-02T16:40:07.491Z,3.77
2018-11-02T16:45:04.831Z,2.93
2018-11-02T16:50:01.583Z,2.20
2018-11-02T16:54:58.406Z,2.40
2018-11-02T16:59:55.220Z,2.33
2018-11-02T17:04:52.011Z,2.97
2018-11-02T17:09:48.821Z,5.37
2018-11-02T17:14:45.616Z,7.47
2018-11-02T17:19:42.350Z,9.10
2018-11-02T17:24:39.089Z,17.87
2018-11-02T17:29:35.793Z,21.57
2018-11-02T17:34:33.447Z,13.53
2018-11-02T17:39:30.186Z,4.10
2018-11-02T17:44:26.895Z,4.47
2018-11-02T17:49:23.618Z,6.03
2018-11-02T17:54:20.423Z,5.73
2018-11-02T17:59:17.219Z,4.20
2018-11-02T18:04:13.914Z,4.13
2018-11-02T18:09:11.318Z,4.73
2018-11-02T18:14:08.054Z,4.57
2018-11-02T18:19:04.776Z,4.13
2018-11-02T18:24:01.578Z,3.70
2018-11-02T18:28:58.318Z,3.83
2018-11-02T18:33:55.079Z,3.23
2018-11-02T18:38:51.847Z,2.80
2018-11-02T18:43:48.597Z,4.40
2018-11-02T18:48:45.287Z,3.63
2018-11-02T18:53:42.041Z,3.40
2018-11-02T18:58:38.772Z,3.37
2018-11-02T19:03:35.436Z,3.70
2018-11-02T19:08:32.286Z,4.20
2018-11-02T19:13:29.054Z,5.37
2018-11-02T19:18:25.671Z,5.80
2018-11-02T19:23:22.517Z,6.87
2018-11-02T19:28:19.300Z,8.73
2018-11-02T19:33:16.073Z,10.30
2018-11-02T19:38:13.082Z,14.20
2018-11-02T19:43:09.685Z,24.00
2018-11-02T19:48:07.080Z,24.77
2018-11-02T19:53:03.825Z,24.43
2018-11-02T19:58:00.648Z,19.03
2018-11-02T20:02:57.653Z,16.23
2018-11-02T20:07:54.410Z,10.73
2018-11-02T20:12:51.169Z,11.27
2018-11-02T20:17:47.954Z,10.13
2018-11-02T20:22:44.719Z,8.17
2018-11-02T20:27:41.874Z,8.20
2018-11-02T20:32:38.654Z,8.40
2018-11-02T20:37:35.790Z,9.37
2018-11-02T20:42:32.488Z,10.27
2018-11-02T20:47:33.772Z,12.53
2018-11-02T20:52:30.474Z,11.83
2018-11-02T20:57:27.402Z,10.10
2018-11-02T21:02:24.139Z,8.80
2018-11-02T21:07:20.920Z,9.07
2018-11-02T21:12:17.591Z,8.73
2018-11-02T21:17:14.342Z,10.33
2018-11-02T21:22:11.968Z,9.17
2018-11-02T21:27:09.076Z,7.93
2018-11-02T21:32:05.832Z,7.20
2018-11-02T21:37:02.565Z,6.37
2018-11-02T21:41:59.501Z,6.70
2018-11-02T21:46:56.330Z,7.60
2018-11-02T21:51:53.133Z,9.67
2018-11-02T21:56:49.838Z,9.63
2018-11-02T22:01:46.543Z,8.50
2018-11-02T22:06:43.287Z,7.30
2018-11-02T22:11:40.048Z,6.77
2018-11-02T22:16:36.822Z,6.63
2018-11-02T22:21:33.494Z,6.97
2018-11-02T22:26:30.271Z,7.23
2018-11-02T22:31:27.195Z,7.27
2018-11-02T22:36:23.942Z,7.63
2018-11-02T22:41:20.662Z,8.17
2018-11-02T22:46:17.423Z,8.43
2018-11-02T22:51:14.161Z,9.00
2018-11-02T22:56:10.883Z,9.60
2018-11-02T23:01:13.495Z,9.10
2018-11-02T23:06:10.281Z,9.10
2018-11-02T23:11:07.085Z,10.10
2018-11-02T23:16:03.945Z,9.33
2018-11-02T23:21:00.687Z,9.50
2018-11-02T23:25:57.623Z,9.20
2018-11-02T23:30:54.384Z,9.40
2018-11-02T23:35:51.099Z,8.80
2018-11-02T23:40:47.886Z,9.47
2018-11-02T23:45:44.567Z,9.40
2018-11-02T23:50:41.230Z,9.60
2018-11-02T23:55:38.023Z,10.10
